createdAt,value
2023-01-07T00:00:15.144Z,4.57
2023-01-07T00:05:16.906Z,6.00
2023-01-07T00:10:18.510Z,4.10
2023-01-07T00:15:20.097Z,4.43
2023-01-07T00:20:21.742Z,4.43
2023-01-07T00:25:27.051Z,4.85
2023-01-07T00:30:59.613Z,4.75
2023-01-07T00:36:03.234Z,6.82
2023-01-07T00:41:05.304Z,5.53
2023-01-07T00:46:07.092Z,5.28
2023-01-07T00:51:10.584Z,6.38
2023-01-07T00:56:14.616Z,5.13
2023-01-07T01:01:16.897Z,4.50
2023-01-07T01:06:20.189Z,5.07
2023-01-07T01:11:21.791Z,5.53
2023-01-07T01:16:23.650Z,5.03
2023-01-07T01:21:25.353Z,5.93
2023-01-07T01:26:27.004Z,4.40
2023-01-07T01:31:28.903Z,3.80
2023-01-07T01:36:30.743Z,3.35
2023-01-07T01:41:34.526Z,4.20
2023-01-07T01:46:39.597Z,4.22
2023-01-07T01:51:48.352Z,7.10
2023-01-07T01:56:54.431Z,5.00
2023-01-07T02:01:57.219Z,3.10
2023-01-07T02:07:19.451Z,4.22
2023-01-07T02:12:40.788Z,5.10
2023-01-07T02:18:07.452Z,4.28
2023-01-07T02:23:55.159Z,3.42
2023-01-07T02:29:16.075Z,3.33
2023-01-07T02:34:39.336Z,3.67
2023-01-07T02:40:07.869Z,4.85
2023-01-07T02:45:32.331Z,4.82
2023-01-07T02:50:35.228Z,5.47
2023-01-07T02:56:03.169Z,4.75
2023-01-07T03:01:17.510Z,5.80
2023-01-07T03:06:25.073Z,4.35
2023-01-07T03:11:35.279Z,6.57
2023-01-07T03:16:40.197Z,5.85
2023-01-07T03:21:46.546Z,6.20
2023-01-07T03:26:51.898Z,5.95
2023-01-07T03:31:59.329Z,7.78
2023-01-07T03:37:13.340Z,7.68
2023-01-07T03:42:39.883Z,6.70
2023-01-07T03:47:48.091Z,6.13
2023-01-07T03:52:51.096Z,7.35
2023-01-07T03:57:54.550Z,5.43
2023-01-07T04:02:58.468Z,9.48
2023-01-07T04:08:07.637Z,6.57
2023-01-07T04:13:12.641Z,6.55
2023-01-07T04:18:17.344Z,7.50
2023-01-07T04:23:19.097Z,4.85
2023-01-07T04:28:23.950Z,6.50
2023-01-07T04:33:26.523Z,5.53
2023-01-07T04:38:28.281Z,5.90
2023-01-07T04:43:30.845Z,5.13
2023-01-07T04:48:32.788Z,6.43
2023-01-07T04:53:34.974Z,7.55
2023-01-07T04:58:37.730Z,8.40
2023-01-07T05:03:39.509Z,5.38
2023-01-07T05:08:41.766Z,5.55
2023-01-07T05:13:43.485Z,6.78
2023-01-07T05:18:46.008Z,11.55
2023-01-07T05:23:48.223Z,7.75
2023-01-07T05:28:49.910Z,8.13
2023-01-07T05:33:51.914Z,8.00
2023-01-07T05:38:53.681Z,7.65
2023-01-07T05:43:55.785Z,9.07
2023-01-07T05:48:57.455Z,8.65
2023-01-07T05:53:59.067Z,8.18
2023-01-07T05:59:01.170Z,9.68
2023-01-07T06:04:02.829Z,9.57
2023-01-07T06:09:04.715Z,9.15
2023-01-07T06:14:06.316Z,9.38
2023-01-07T06:19:07.938Z,11.25
2023-01-07T06:24:11.391Z,10.43
2023-01-07T06:29:13.084Z,11.48
2023-01-07T06:34:14.724Z,9.75
2023-01-07T06:39:16.360Z,8.15
2023-01-07T06:44:18.006Z,8.55
2023-01-07T06:49:19.628Z,9.07
2023-01-07T06:54:21.249Z,8.82
2023-01-07T06:59:22.930Z,11.75
2023-01-07T07:04:24.525Z,10.45
2023-01-07T07:09:26.205Z,10.10
2023-01-07T07:14:27.875Z,11.38
2023-01-07T07:19:29.573Z,7.53
2023-01-07T07:24:31.297Z,6.97
2023-01-07T07:29:32.898Z,7.50
2023-01-07T07:34:36.030Z,6.55
2023-01-07T07:39:37.979Z,9.77
2023-01-07T07:44:39.623Z,6.25
2023-01-07T07:49:41.367Z,7.43
2023-01-07T07:54:43.096Z,5.80
2023-01-07T07:59:44.758Z,5.38
2023-01-07T08:04:46.441Z,6.43
2023-01-07T08:09:48.049Z,3.80
2023-01-07T08:14:49.669Z,3.83
2023-01-07T08:19:51.466Z,4.93
2023-01-07T08:24:53.159Z,4.38
2023-01-07T08:29:55.747Z,4.15
2023-01-07T08:34:57.886Z,4.32
2023-01-07T08:40:00.154Z,4.43
2023-01-07T08:45:01.824Z,4.97
2023-01-07T08:50:04.371Z,3.00
2023-01-07T08:55:06.174Z,4.35
2023-01-07T09:00:08.530Z,4.57
2023-01-07T09:05:10.791Z,2.70
2023-01-07T09:10:12.600Z,4.35
2023-01-07T09:15:14.249Z,3.50
2023-01-07T09:20:15.977Z,2.58
2023-01-07T09:25:17.718Z,3.45
2023-01-07T09:30:19.566Z,4.18
2023-01-07T09:35:22.247Z,4.25
2023-01-07T09:40:28.702Z,3.13
2023-01-07T09:45:39.266Z,3.90
2023-01-07T09:50:53.458Z,1.67
2023-01-07T09:56:11.135Z,2.50
2023-01-07T10:01:44.920Z,2.45
2023-01-07T10:07:15.644Z,2.75
2023-01-07T10:17:47.705Z,1.70
2023-01-07T10:23:10.302Z,1.98
2023-01-07T10:28:20.257Z,1.58
2023-01-07T10:38:34.823Z,2.97
2023-01-07T10:44:25.906Z,2.72
2023-01-07T10:50:14.085Z,1.92
2023-01-07T10:55:38.891Z,2.58
2023-01-07T11:00:45.704Z,1.13
2023-01-07T11:05:51.459Z,2.25
2023-01-07T11:10:58.905Z,1.45
2023-01-07T11:16:19.117Z,1.60
2023-01-07T11:21:43.311Z,2.58
2023-01-07T11:26:46.598Z,1.48
2023-01-07T11:31:57.128Z,1.70
2023-01-07T11:36:59.150Z,2.55
2023-01-07T11:42:38.272Z,2.47
2023-01-07T11:47:46.851Z,2.42
2023-01-07T11:52:56.484Z,1.73
2023-01-07T11:58:29.294Z,1.58
2023-01-07T12:03:20.666Z,1.83
2023-01-07T12:08:23.541Z,1.40
2023-01-07T12:13:28.076Z,1.70
2023-01-07T12:18:38.861Z,1.60
2023-01-07T12:24:27.235Z,1.63
2023-01-07T12:29:47.638Z,1.55
2023-01-07T12:34:59.619Z,1.38
2023-01-07T12:40:31.033Z,2.22
2023-01-07T12:45:53.101Z,3.03
2023-01-07T12:50:59.868Z,2.47
2023-01-07T12:56:12.326Z,3.05
2023-01-07T13:01:39.071Z,1.95
2023-01-07T13:06:57.701Z,1.42
2023-01-07T13:12:41.911Z,2.25
2023-01-07T13:17:44.772Z,1.30
2023-01-07T13:22:53.127Z,2.72
2023-01-07T13:28:13.537Z,1.30
2023-01-07T13:38:50.237Z,4.05
2023-01-07T13:44:04.332Z,5.05
2023-01-07T13:49:06.603Z,6.53
2023-01-07T13:54:11.682Z,3.15
2023-01-07T13:59:31.569Z,2.28
2023-01-07T14:04:35.189Z,2.72
2023-01-07T14:09:38.170Z,3.10
2023-01-07T14:15:07.374Z,3.20
2023-01-07T14:20:34.569Z,3.13
2023-01-07T14:25:57.922Z,2.67
2023-01-07T14:30:59.776Z,3.75
2023-01-07T14:36:10.158Z,3.28
2023-01-07T14:41:16.439Z,2.75
2023-01-07T14:46:24.211Z,2.10
2023-01-07T14:51:29.153Z,1.50
2023-01-07T14:56:52.105Z,2.50
2023-01-07T15:02:21.523Z,2.08
2023-01-07T15:07:29.308Z,2.38
2023-01-07T15:12:52.203Z,2.70
2023-01-07T15:17:56.513Z,2.50
2023-01-07T15:23:27.568Z,2.42
2023-01-07T15:28:41.406Z,3.65
2023-01-07T15:34:08.008Z,3.92
2023-01-07T15:39:36.006Z,7.22
2023-01-07T15:44:42.005Z,2.13
2023-01-07T15:49:43.756Z,3.10
2023-01-07T15:54:45.493Z,2.17
2023-01-07T15:59:52.643Z,3.28
2023-01-07T16:04:57.735Z,2.70
2023-01-07T16:10:00.331Z,3.85
2023-01-07T16:15:20.482Z,2.22
2023-01-07T16:20:29.688Z,3.08
2023-01-07T16:25:40.433Z,5.32
2023-01-07T16:30:44.462Z,2.63
2023-01-07T16:35:48.163Z,3.20
2023-01-07T16:40:51.458Z,2.60
2023-01-07T16:46:23.481Z,2.95
2023-01-07T16:52:05.868Z,3.50
2023-01-07T16:57:42.301Z,3.92
2023-01-07T17:02:51.501Z,4.10
2023-01-07T17:07:56.792Z,4.17
2023-01-07T17:13:08.378Z,4.55
2023-01-07T17:18:15.494Z,3.33
2023-01-07T17:23:27.827Z,3.95
2023-01-07T17:28:34.831Z,5.22
2023-01-07T17:33:37.906Z,5.35
2023-01-07T17:38:39.765Z,3.55
2023-01-07T17:43:41.445Z,5.80
2023-01-07T17:48:48.914Z,5.05
2023-01-07T17:53:52.432Z,4.45
2023-01-07T17:58:56.050Z,3.95
2023-01-07T18:03:58.965Z,7.07
2023-01-07T18:09:01.259Z,5.10
2023-01-07T18:14:03.740Z,3.80
2023-01-07T18:19:05.873Z,3.45
2023-01-07T18:24:08.238Z,5.03
2023-01-07T18:29:11.820Z,5.05
2023-01-07T18:34:16.108Z,4.25
2023-01-07T18:39:20.815Z,4.35
2023-01-07T18:44:26.664Z,6.25
2023-01-07T18:49:31.493Z,7.95
2023-01-07T18:54:38.012Z,7.85
2023-01-07T18:59:40.559Z,7.53
2023-01-07T19:04:42.438Z,7.00
2023-01-07T19:09:44.648Z,4.97
2023-01-07T19:14:49.368Z,6.68
2023-01-07T19:19:51.987Z,5.15
2023-01-07T19:24:57.336Z,7.82
2023-01-07T19:30:05.245Z,5.07
2023-01-07T19:35:08.695Z,5.43
2023-01-07T19:40:12.480Z,5.45
2023-01-07T19:45:14.315Z,6.30
2023-01-07T19:50:16.256Z,4.93
2023-01-07T19:55:23.472Z,4.78
2023-01-07T20:00:25.305Z,6.32
2023-01-07T20:05:29.033Z,6.93
2023-01-07T20:10:36.082Z,4.72
2023-01-07T20:15:41.742Z,4.55
2023-01-07T20:20:53.926Z,4.78
2023-01-07T20:25:56.145Z,6.00
2023-01-07T20:31:01.636Z,6.28
2023-01-07T20:36:12.895Z,6.03
2023-01-07T20:41:27.114Z,4.22
2023-01-07T20:46:31.190Z,4.22
2023-01-07T20:51:33.969Z,5.38
2023-01-07T20:56:38.590Z,5.85
2023-01-07T21:01:52.646Z,6.03
2023-01-07T21:06:55.459Z,5.93
2023-01-07T21:11:57.140Z,5.47
2023-01-07T21:16:59.141Z,5.40
2023-01-07T21:22:00.899Z,6.32
2023-01-07T21:27:02.895Z,5.07
2023-01-07T21:32:06.425Z,7.38
2023-01-07T21:37:10.745Z,6.85
2023-01-07T21:42:12.493Z,4.43
2023-01-07T21:47:14.411Z,8.27
2023-01-07T21:52:16.090Z,7.43
2023-01-07T21:57:18.742Z,5.40
2023-01-07T22:02:20.369Z,6.03
2023-01-07T22:07:22.012Z,3.50
2023-01-07T22:12:25.665Z,4.80
2023-01-07T22:17:27.392Z,4.97
2023-01-07T22:22:34.583Z,3.72
2023-01-07T22:27:36.406Z,4.90
2023-01-07T22:32:38.144Z,5.68
2023-01-07T22:37:40.339Z,5.18
2023-01-07T22:42:57.030Z,4.90
2023-01-07T22:47:59.318Z,3.28
2023-01-07T22:53:01.145Z,4.00
2023-01-07T22:58:03.553Z,6.38
2023-01-07T23:03:05.222Z,4.03
2023-01-07T23:08:07.415Z,4.45
2023-01-07T23:13:09.811Z,9.13
2023-01-07T23:18:12.238Z,6.10
2023-01-07T23:23:14.041Z,9.95
2023-01-07T23:28:17.208Z,8.57
2023-01-07T23:33:18.877Z,11.52
2023-01-07T23:38:20.553Z,8.38
2023-01-07T23:43:22.168Z,9.48
2023-01-07T23:48:25.780Z,5.35
2023-01-07T23:53:27.413Z,9.02
2023-01-07T23:58:30.115Z,11.48
